createdAt,value
2017-07-09T00:00:44.263Z,1009.99
2017-07-09T00:01:38.364Z,1009.96
2017-07-09T00:02:32.406Z,1009.93
2017-07-09T00:03:32.783Z,1009.93
2017-07-09T00:04:26.472Z,1009.93
2017-07-09T00:05:20.518Z,1009.93
2017-07-09T00:06:15.997Z,1009.95
2017-07-09T00:07:09.609Z,1009.92
2017-07-09T00:08:03.837Z,1009.90
2017-07-09T00:08:58.878Z,1009.89
2017-07-09T00:09:53.064Z,1009.92
2017-07-09T00:10:46.866Z,1009.83
2017-07-09T00:11:40.721Z,1009.85
2017-07-09T00:12:42.215Z,1009.81
2017-07-09T00:13:31.276Z,1009.87
2017-07-09T00:14:20.024Z,1009.85
2017-07-09T00:15:20.093Z,1009.84
2017-07-09T00:16:14.046Z,1009.82
2017-07-09T00:17:02.992Z,1009.85
2017-07-09T00:17:52.071Z,1009.84
2017-07-09T00:18:41.439Z,1009.84
2017-07-09T00:19:36.267Z,1009.90
2017-07-09T00:20:30.269Z,1009.91
2017-07-09T00:21:30.196Z,1009.90
2017-07-09T00:22:24.336Z,1009.86
2017-07-09T00:23:18.637Z,1009.88
2017-07-09T00:24:07.375Z,1009.89
2017-07-09T00:24:56.364Z,1009.94
2017-07-09T00:25:56.598Z,1009.95
2017-07-09T00:26:51.559Z,1009.97
2017-07-09T00:27:45.607Z,1010.00
2017-07-09T00:28:40.989Z,1009.96
2017-07-09T00:29:34.654Z,1010.00
2017-07-09T00:30:28.623Z,1010.00
2017-07-09T00:31:23.157Z,1010.04
2017-07-09T00:32:10.800Z,1010.03
2017-07-09T00:32:58.812Z,1010.07
2017-07-09T00:33:53.276Z,1010.05
2017-07-09T00:34:47.868Z,1010.03
2017-07-09T00:35:36.071Z,1010.03
2017-07-09T00:36:23.990Z,1010.00
2017-07-09T00:37:19.008Z,1009.99
2017-07-09T00:38:07.145Z,1009.96
2017-07-09T00:39:07.144Z,1009.97
2017-07-09T00:40:01.181Z,1009.96
2017-07-09T00:41:01.302Z,1009.96
2017-07-09T00:41:55.276Z,1009.97
2017-07-09T00:42:50.199Z,1009.90
2017-07-09T00:43:45.247Z,1009.96
2017-07-09T00:44:45.311Z,1009.97
2017-07-09T00:45:40.478Z,1009.93
2017-07-09T00:46:40.635Z,1009.96
2017-07-09T00:47:28.503Z,1009.87
2017-07-09T00:48:22.522Z,1009.87
2017-07-09T00:49:11.849Z,1009.81
2017-07-09T00:50:06.623Z,1009.80
2017-07-09T00:50:55.661Z,1009.77
2017-07-09T00:51:49.625Z,1009.78
2017-07-09T00:52:44.906Z,1009.75
2017-07-09T00:53:40.053Z,1009.73
2017-07-09T00:54:27.815Z,1009.76
2017-07-09T00:55:27.822Z,1009.73
2017-07-09T00:56:16.883Z,1009.69
2017-07-09T00:57:05.974Z,1009.74
2017-07-09T00:57:54.006Z,1009.72
2017-07-09T00:58:43.222Z,1009.73
2017-07-09T00:59:38.050Z,1009.75
2017-07-09T01:00:27.064Z,1009.73
2017-07-09T01:01:22.142Z,1009.72
2017-07-09T01:02:17.291Z,1009.69
2017-07-09T01:03:11.342Z,1009.66
2017-07-09T01:04:00.323Z,1009.69
2017-07-09T01:05:00.419Z,1009.68
2017-07-09T01:05:49.377Z,1009.69
2017-07-09T01:06:44.428Z,1009.68
2017-07-09T01:07:44.496Z,1009.64
2017-07-09T01:08:38.699Z,1009.66
2017-07-09T01:09:39.735Z,1009.66
2017-07-09T01:10:39.570Z,1009.61
2017-07-09T01:11:28.561Z,1009.61
2017-07-09T01:12:28.918Z,1009.57
2017-07-09T01:13:22.682Z,1009.54
2017-07-09T01:14:22.646Z,1009.56
2017-07-09T01:15:17.146Z,1009.48
2017-07-09T01:16:11.851Z,1009.48
2017-07-09T01:17:12.056Z,1009.46
2017-07-09T01:18:12.312Z,1009.51
2017-07-09T01:19:00.899Z,1009.43
2017-07-09T01:19:49.968Z,1009.40
2017-07-09T01:20:45.039Z,1009.49
2017-07-09T01:21:40.049Z,1009.42
2017-07-09T01:22:40.029Z,1009.38
2017-07-09T01:23:40.298Z,1009.42
2017-07-09T01:24:35.214Z,1009.41
2017-07-09T01:25:29.545Z,1009.41
2017-07-09T01:26:29.358Z,1009.42
2017-07-09T01:27:24.548Z,1009.47
2017-07-09T01:28:18.324Z,1009.45
2017-07-09T01:29:18.579Z,1009.43
2017-07-09T01:30:07.462Z,1009.41
2017-07-09T01:31:02.370Z,1009.40
2017-07-09T01:31:57.429Z,1009.42
2017-07-09T01:32:46.596Z,1009.41
2017-07-09T01:33:34.994Z,1009.35
2017-07-09T01:34:34.651Z,1009.37
2017-07-09T01:35:28.760Z,1009.33
2017-07-09T01:36:29.616Z,1009.34
2017-07-09T01:37:18.700Z,1009.30
2017-07-09T01:38:07.237Z,1009.33
2017-07-09T01:39:01.818Z,1009.29
2017-07-09T01:39:51.253Z,1009.33
2017-07-09T01:40:38.960Z,1009.33
2017-07-09T01:41:27.922Z,1009.32
2017-07-09T01:42:23.019Z,1009.33
2017-07-09T01:43:11.907Z,1009.33
2017-07-09T01:44:12.283Z,1009.34
2017-07-09T01:45:00.075Z,1009.40
2017-07-09T01:46:00.099Z,1009.39
2017-07-09T01:46:55.192Z,1009.42
2017-07-09T01:47:43.278Z,1009.39
2017-07-09T01:48:32.711Z,1009.40
2017-07-09T01:49:27.254Z,1009.37
2017-07-09T01:50:21.736Z,1009.38
2017-07-09T01:51:09.774Z,1009.40
2017-07-09T01:52:03.414Z,1009.39
2017-07-09T01:52:58.475Z,1009.36
2017-07-09T01:53:53.011Z,1009.31
2017-07-09T01:54:46.919Z,1009.27
2017-07-09T01:55:40.942Z,1009.26
2017-07-09T01:56:35.990Z,1009.18
2017-07-09T01:57:36.004Z,1009.19
2017-07-09T01:58:30.084Z,1009.11
2017-07-09T01:59:24.140Z,1009.16
2017-07-09T02:00:18.201Z,1009.16
2017-07-09T02:01:12.153Z,1009.21
2017-07-09T02:02:07.275Z,1009.18
2017-07-09T02:03:02.239Z,1009.21
2017-07-09T02:04:02.982Z,1009.26
2017-07-09T02:04:51.987Z,1009.27
2017-07-09T02:05:47.139Z,1009.25
2017-07-09T02:06:36.077Z,1009.28
2017-07-09T02:07:30.271Z,1009.21
2017-07-09T02:08:25.396Z,1009.25
2017-07-09T02:09:20.243Z,1009.22
2017-07-09T02:10:21.588Z,1009.23
2017-07-09T02:11:16.714Z,1009.20
2017-07-09T02:12:05.244Z,1009.17
2017-07-09T02:12:59.356Z,1009.24
2017-07-09T02:13:59.362Z,1009.22
2017-07-09T02:14:53.568Z,1009.21
2017-07-09T02:15:41.423Z,1009.28
2017-07-09T02:16:30.584Z,1009.26
2017-07-09T02:17:24.908Z,1009.23
2017-07-09T02:18:19.891Z,1009.21
2017-07-09T02:19:13.969Z,1009.21
2017-07-09T02:20:19.688Z,1009.19
2017-07-09T02:21:14.729Z,1009.19
2017-07-09T02:22:14.737Z,1009.20
2017-07-09T02:23:09.234Z,1009.22
2017-07-09T02:24:14.893Z,1009.19
2017-07-09T02:25:14.889Z,1009.18
2017-07-09T02:26:03.888Z,1009.17
2017-07-09T02:26:52.994Z,1009.15
2017-07-09T02:27:41.103Z,1009.15
2017-07-09T02:28:29.435Z,1009.15
2017-07-09T02:29:18.154Z,1009.14
2017-07-09T02:30:12.476Z,1009.20
2017-07-09T02:31:07.176Z,1009.17
2017-07-09T02:31:56.519Z,1009.20
2017-07-09T02:32:50.388Z,1009.25
2017-07-09T02:33:44.727Z,1009.27
2017-07-09T02:34:39.375Z,1009.26
2017-07-09T02:35:34.772Z,1009.27
2017-07-09T02:36:22.721Z,1009.29
2017-07-09T02:37:11.881Z,1009.28
2017-07-09T02:38:11.812Z,1009.27
2017-07-09T02:39:05.859Z,1009.26
2017-07-09T02:39:59.944Z,1009.20
2017-07-09T02:40:54.627Z,1009.22
2017-07-09T02:41:50.059Z,1009.24
2017-07-09T02:42:50.015Z,1009.27
2017-07-09T02:43:44.189Z,1009.20
2017-07-09T02:44:38.754Z,1009.12
2017-07-09T02:45:33.848Z,1009.12
2017-07-09T02:46:34.848Z,1009.10
2017-07-09T02:47:28.922Z,1009.10
2017-07-09T02:48:29.162Z,1009.04
2017-07-09T02:49:23.922Z,1009.08
2017-07-09T02:50:18.984Z,1009.13
2017-07-09T02:51:19.570Z,1009.12
2017-07-09T02:52:14.019Z,1009.17
2017-07-09T02:53:09.577Z,1009.20
2017-07-09T02:54:04.198Z,1009.25
2017-07-09T02:55:05.200Z,1009.24
2017-07-09T02:56:05.273Z,1009.26
2017-07-09T02:57:00.371Z,1009.28
2017-07-09T02:58:00.321Z,1009.31
2017-07-09T02:58:55.559Z,1009.31
2017-07-09T02:59:50.511Z,1009.31
2017-07-09T03:00:45.405Z,1009.27
2017-07-09T03:01:46.426Z,1009.19
2017-07-09T03:02:35.471Z,1009.20
2017-07-09T03:03:30.559Z,1009.19
2017-07-09T03:04:30.958Z,1009.24
2017-07-09T03:05:25.853Z,1009.21
2017-07-09T03:06:21.046Z,1009.25
2017-07-09T03:07:10.094Z,1009.26
2017-07-09T03:08:05.099Z,1009.26
2017-07-09T03:09:00.105Z,1009.25
2017-07-09T03:10:00.225Z,1009.30
2017-07-09T03:10:54.277Z,1009.25
2017-07-09T03:11:43.268Z,1009.30
2017-07-09T03:12:43.335Z,1009.32
2017-07-09T03:13:31.423Z,1009.30
2017-07-09T03:14:19.284Z,1009.25
2017-07-09T03:15:08.362Z,1009.26
2017-07-09T03:16:03.477Z,1009.21
2017-07-09T03:16:57.485Z,1009.25
2017-07-09T03:17:51.545Z,1009.23
2017-07-09T03:18:46.585Z,1009.19
2017-07-09T03:19:34.663Z,1009.22
2017-07-09T03:20:34.705Z,1009.21
2017-07-09T03:21:28.698Z,1009.20
2017-07-09T03:22:22.677Z,1009.26
2017-07-09T03:23:17.857Z,1009.22
2017-07-09T03:24:11.812Z,1009.22
2017-07-09T03:25:05.948Z,1009.29
2017-07-09T03:26:00.871Z,1009.29
2017-07-09T03:26:56.003Z,1009.28
2017-07-09T03:27:56.006Z,1009.29
2017-07-09T03:28:50.040Z,1009.29
2017-07-09T03:29:51.120Z,1009.28
2017-07-09T03:30:51.048Z,1009.27
2017-07-09T03:31:45.221Z,1009.26
2017-07-09T03:32:45.323Z,1009.26
2017-07-09T03:33:39.199Z,1009.20
2017-07-09T03:34:34.351Z,1009.23
2017-07-09T03:35:23.557Z,1009.24
2017-07-09T03:36:11.413Z,1009.24
2017-07-09T03:37:00.493Z,1009.25
2017-07-09T03:37:55.593Z,1009.25
2017-07-09T03:38:44.558Z,1009.19
2017-07-09T03:39:33.583Z,1009.26
2017-07-09T03:40:33.600Z,1009.29
2017-07-09T03:41:21.684Z,1009.26
2017-07-09T03:42:15.654Z,1009.27
2017-07-09T03:43:10.832Z,1009.32
2017-07-09T03:44:04.819Z,1009.36
2017-07-09T03:44:52.821Z,1009.39
2017-07-09T03:45:41.877Z,1009.41
2017-07-09T03:46:30.607Z,1009.43
2017-07-09T03:47:19.559Z,1009.42
2017-07-09T03:48:07.826Z,1009.42
2017-07-09T03:48:56.669Z,1009.42
2017-07-09T03:49:44.921Z,1009.42
2017-07-09T03:50:33.103Z,1009.41
2017-07-09T03:51:21.857Z,1009.45
2017-07-09T03:52:15.998Z,1009.41
2017-07-09T03:53:05.219Z,1009.46
2017-07-09T03:53:52.921Z,1009.43
2017-07-09T03:54:53.370Z,1009.38
2017-07-09T03:55:46.993Z,1009.37
2017-07-09T03:56:42.060Z,1009.35
2017-07-09T03:57:36.210Z,1009.39
2017-07-09T03:58:25.470Z,1009.35
2017-07-09T03:59:13.161Z,1009.36
2017-07-09T04:00:08.232Z,1009.40
2017-07-09T04:01:03.428Z,1009.40
2017-07-09T04:01:57.358Z,1009.45
2017-07-09T04:02:52.841Z,1009.42
2017-07-09T04:03:46.742Z,1009.45
2017-07-09T04:04:46.568Z,1009.44
2017-07-09T04:05:40.648Z,1009.46
2017-07-09T04:06:40.645Z,1009.46
2017-07-09T04:07:34.613Z,1009.45
2017-07-09T04:08:35.929Z,1009.45
2017-07-09T04:09:35.898Z,1009.45
2017-07-09T04:10:35.708Z,1009.46
2017-07-09T04:11:30.122Z,1009.46
2017-07-09T04:12:29.674Z,1009.45
2017-07-09T04:13:18.774Z,1009.49
2017-07-09T04:14:13.293Z,1009.46
2017-07-09T04:15:06.779Z,1009.44
2017-07-09T04:16:02.266Z,1009.39
2017-07-09T04:17:01.897Z,1009.43
2017-07-09T04:17:56.954Z,1009.35
2017-07-09T04:18:52.475Z,1009.39
2017-07-09T04:19:52.416Z,1009.37
2017-07-09T04:20:47.445Z,1009.39
2017-07-09T04:21:36.440Z,1009.40
2017-07-09T04:22:24.190Z,1009.44
2017-07-09T04:23:12.716Z,1009.44
2017-07-09T04:24:06.572Z,1009.46
2017-07-09T04:25:00.480Z,1009.44
2017-07-09T04:25:54.824Z,1009.46
2017-07-09T04:26:48.344Z,1009.49
2017-07-09T04:27:37.732Z,1009.48
2017-07-09T04:28:31.788Z,1009.46
2017-07-09T04:29:27.015Z,1009.46
2017-07-09T04:30:16.018Z,1009.41
2017-07-09T04:31:09.885Z,1009.38
2017-07-09T04:31:58.860Z,1009.31
2017-07-09T04:32:58.910Z,1009.30
2017-07-09T04:33:52.701Z,1009.33
2017-07-09T04:34:52.938Z,1009.30
2017-07-09T04:35:47.163Z,1009.34
2017-07-09T04:36:36.117Z,1009.33
2017-07-09T04:37:31.284Z,1009.36
2017-07-09T04:38:31.083Z,1009.33
2017-07-09T04:39:24.938Z,1009.39
2017-07-09T04:40:14.292Z,1009.40
2017-07-09T04:41:08.440Z,1009.37
2017-07-09T04:42:03.181Z,1009.40
2017-07-09T04:43:03.264Z,1009.42
2017-07-09T04:43:58.113Z,1009.43
2017-07-09T04:44:46.332Z,1009.45
2017-07-09T04:45:46.353Z,1009.45
2017-07-09T04:46:41.389Z,1009.46
2017-07-09T04:47:36.472Z,1009.49
2017-07-09T04:48:30.503Z,1009.47
2017-07-09T04:49:18.705Z,1009.45
2017-07-09T04:50:12.515Z,1009.43
2017-07-09T04:51:06.888Z,1009.50
2017-07-09T04:52:00.565Z,1009.50
2017-07-09T04:53:00.909Z,1009.47
2017-07-09T04:53:50.024Z,1009.48
2017-07-09T04:54:43.995Z,1009.50
2017-07-09T04:55:38.969Z,1009.50
2017-07-09T04:56:34.118Z,1009.51
2017-07-09T04:57:28.195Z,1009.52
2017-07-09T04:58:17.327Z,1009.49
2017-07-09T04:59:12.254Z,1009.49
2017-07-09T05:00:06.231Z,1009.48
2017-07-09T05:01:06.238Z,1009.46
2017-07-09T05:01:54.250Z,1009.43
2017-07-09T05:02:54.109Z,1009.42
2017-07-09T05:03:48.319Z,1009.42
2017-07-09T05:04:48.236Z,1009.43
2017-07-09T05:05:43.373Z,1009.44
2017-07-09T05:06:43.629Z,1009.39
2017-07-09T05:07:37.588Z,1009.38
2017-07-09T05:08:37.507Z,1009.39
2017-07-09T05:09:32.767Z,1009.43
2017-07-09T05:10:21.806Z,1009.37
2017-07-09T05:11:15.890Z,1009.39
2017-07-09T05:12:09.630Z,1009.37
2017-07-09T05:13:04.886Z,1009.37
2017-07-09T05:13:52.046Z,1009.30
2017-07-09T05:14:46.834Z,1009.33
2017-07-09T05:15:41.881Z,1009.34
2017-07-09T05:16:37.051Z,1009.33
2017-07-09T05:17:31.178Z,1009.31
2017-07-09T05:18:19.197Z,1009.27
2017-07-09T05:19:13.051Z,1009.33
2017-07-09T05:20:13.237Z,1009.28
2017-07-09T05:21:02.102Z,1009.28
2017-07-09T05:21:51.314Z,1009.29
2017-07-09T05:22:39.391Z,1009.30
2017-07-09T05:23:33.213Z,1009.25
2017-07-09T05:24:28.093Z,1009.29
2017-07-09T05:25:28.191Z,1009.30
2017-07-09T05:26:28.237Z,1009.32
2017-07-09T05:27:28.402Z,1009.29
2017-07-09T05:28:22.577Z,1009.30
2017-07-09T05:29:16.796Z,1009.31
2017-07-09T05:30:10.767Z,1009.31
2017-07-09T05:31:11.796Z,1009.30
2017-07-09T05:32:05.469Z,1009.30
2017-07-09T05:33:05.389Z,1009.26
2017-07-09T05:33:54.537Z,1009.29
2017-07-09T05:34:49.991Z,1009.27
2017-07-09T05:35:43.996Z,1009.21
2017-07-09T05:36:39.067Z,1009.19
2017-07-09T05:37:39.155Z,1009.16
2017-07-09T05:38:27.949Z,1009.09
2017-07-09T05:39:22.131Z,1009.12
2017-07-09T05:40:17.215Z,1009.13
2017-07-09T05:41:12.026Z,1009.18
2017-07-09T05:42:12.137Z,1009.27
2017-07-09T05:43:12.323Z,1009.20
2017-07-09T05:44:07.017Z,1009.23
2017-07-09T05:45:00.988Z,1009.19
2017-07-09T05:45:50.093Z,1009.21
2017-07-09T05:46:44.212Z,1009.21
2017-07-09T05:47:38.152Z,1009.26
2017-07-09T05:48:32.313Z,1009.30
2017-07-09T05:49:26.641Z,1009.32
2017-07-09T05:50:26.448Z,1009.33
2017-07-09T05:51:20.655Z,1009.34
2017-07-09T05:52:20.773Z,1009.29
2017-07-09T05:53:14.997Z,1009.23
2017-07-09T05:54:08.840Z,1009.26
2017-07-09T05:55:02.588Z,1009.23
2017-07-09T05:55:57.961Z,1009.21
2017-07-09T05:56:46.940Z,1009.19
2017-07-09T05:57:46.646Z,1009.22
2017-07-09T05:58:36.072Z,1009.25
2017-07-09T05:59:30.247Z,1009.22
2017-07-09T06:00:31.133Z,1009.24
2017-07-09T06:01:20.279Z,1009.25
2017-07-09T06:02:09.417Z,1009.23
2017-07-09T06:03:03.391Z,1009.24
2017-07-09T06:04:09.366Z,1009.24
2017-07-09T06:05:04.361Z,1009.20
2017-07-09T06:06:04.511Z,1009.22
2017-07-09T06:06:59.537Z,1009.20
2017-07-09T06:07:54.645Z,1009.20
2017-07-09T06:08:48.470Z,1009.19
2017-07-09T06:09:43.352Z,1009.19
2017-07-09T06:10:32.785Z,1009.23
2017-07-09T06:11:20.620Z,1009.23
2017-07-09T06:12:09.666Z,1009.24
2017-07-09T06:13:04.956Z,1009.26
2017-07-09T06:14:04.544Z,1009.27
2017-07-09T06:14:59.596Z,1009.29
2017-07-09T06:15:54.973Z,1009.26
2017-07-09T06:16:43.688Z,1009.28
2017-07-09T06:17:37.767Z,1009.33
2017-07-09T06:18:32.162Z,1009.32
2017-07-09T06:19:25.830Z,1009.33
2017-07-09T06:20:26.250Z,1009.33
2017-07-09T06:21:21.332Z,1009.25
2017-07-09T06:22:15.398Z,1009.20
2017-07-09T06:23:03.954Z,1009.14
2017-07-09T06:23:59.419Z,1009.07
2017-07-09T06:24:59.091Z,1009.11
2017-07-09T06:25:59.149Z,1009.09
2017-07-09T06:26:59.535Z,1009.06
2017-07-09T06:27:53.552Z,1009.01
2017-07-09T06:28:54.330Z,1009.06
2017-07-09T06:29:48.412Z,1009.10
2017-07-09T06:30:48.833Z,1009.14
2017-07-09T06:31:42.615Z,1009.13
2017-07-09T06:32:31.528Z,1009.17
2017-07-09T06:33:19.954Z,1009.15
2017-07-09T06:34:20.567Z,1009.16
2017-07-09T06:35:14.837Z,1009.17
2017-07-09T06:36:14.898Z,1009.18
2017-07-09T06:37:08.725Z,1009.19
2017-07-09T06:38:08.765Z,1009.24
2017-07-09T06:39:09.221Z,1009.29
2017-07-09T06:40:09.212Z,1009.41
2017-07-09T06:41:08.896Z,1009.39
2017-07-09T06:42:08.873Z,1009.39
2017-07-09T06:43:09.229Z,1009.33
2017-07-09T06:43:58.038Z,1009.35
2017-07-09T06:44:57.982Z,1009.32
2017-07-09T06:45:47.155Z,1009.41
2017-07-09T06:46:41.313Z,1009.42
2017-07-09T06:47:41.533Z,1009.52
2017-07-09T06:48:35.573Z,1009.48
2017-07-09T06:49:36.683Z,1009.46
2017-07-09T06:50:31.800Z,1009.44
2017-07-09T06:51:25.878Z,1009.49
2017-07-09T06:52:19.815Z,1009.45
2017-07-09T06:53:13.889Z,1009.36
2017-07-09T06:54:13.882Z,1009.39
2017-07-09T06:55:13.974Z,1009.32
2017-07-09T06:56:03.005Z,1009.36
2017-07-09T06:56:58.048Z,1009.31
2017-07-09T06:57:52.100Z,1009.32
2017-07-09T06:58:47.190Z,1009.35
2017-07-09T06:59:41.165Z,1009.33
2017-07-09T07:00:29.221Z,1009.37
2017-07-09T07:01:23.295Z,1009.39
2017-07-09T07:02:12.289Z,1009.36
2017-07-09T07:03:01.450Z,1009.37
2017-07-09T07:03:50.273Z,1009.38
2017-07-09T07:04:50.339Z,1009.37
2017-07-09T07:05:39.592Z,1009.39
2017-07-09T07:06:27.569Z,1009.36
2017-07-09T07:07:16.575Z,1009.32
2017-07-09T07:08:04.777Z,1009.33
2017-07-09T07:08:53.727Z,1009.32
2017-07-09T07:09:47.828Z,1009.31
2017-07-09T07:10:41.835Z,1009.31
2017-07-09T07:11:36.902Z,1009.26
2017-07-09T07:12:31.890Z,1009.31
2017-07-09T07:13:21.019Z,1009.30
2017-07-09T07:14:15.054Z,1009.33
2017-07-09T07:15:15.048Z,1009.33
2017-07-09T07:16:04.198Z,1009.39
2017-07-09T07:16:59.217Z,1009.38
2017-07-09T07:17:54.307Z,1009.37
2017-07-09T07:18:54.422Z,1009.39
2017-07-09T07:19:43.348Z,1009.38
2017-07-09T07:20:32.418Z,1009.38
2017-07-09T07:21:26.426Z,1009.37
2017-07-09T07:22:26.550Z,1009.24
2017-07-09T07:23:20.600Z,1009.14
2017-07-09T07:24:20.617Z,1009.17
2017-07-09T07:25:08.758Z,1009.22
2017-07-09T07:26:08.738Z,1009.14
2017-07-09T07:27:02.740Z,1009.19
2017-07-09T07:27:57.884Z,1009.25
2017-07-09T07:28:51.850Z,1009.23
2017-07-09T07:29:52.002Z,1009.22
2017-07-09T07:30:46.073Z,1009.27
2017-07-09T07:31:34.039Z,1009.21
2017-07-09T07:32:23.066Z,1009.18
2017-07-09T07:33:18.262Z,1009.13
2017-07-09T07:34:12.351Z,1009.15
2017-07-09T07:35:12.453Z,1009.18
2017-07-09T07:36:12.377Z,1009.23
2017-07-09T07:37:07.382Z,1009.12
2017-07-09T07:38:02.463Z,1009.14
2017-07-09T07:38:56.416Z,1009.10
2017-07-09T07:39:50.536Z,1009.14
2017-07-09T07:40:50.570Z,1009.16
2017-07-09T07:41:44.712Z,1009.14
2017-07-09T07:42:44.688Z,1009.18
2017-07-09T07:43:38.853Z,1009.17
2017-07-09T07:44:33.871Z,1009.14
2017-07-09T07:45:27.830Z,1009.14
2017-07-09T07:46:16.993Z,1009.13
2017-07-09T07:47:11.962Z,1009.15
2017-07-09T07:48:00.251Z,1009.09
2017-07-09T07:48:54.060Z,1009.14
2017-07-09T07:49:48.264Z,1009.14
2017-07-09T07:50:48.227Z,1009.13
2017-07-09T07:51:36.282Z,1009.17
2017-07-09T07:52:36.286Z,1009.11
2017-07-09T07:53:25.306Z,1009.12
2017-07-09T07:54:14.511Z,1009.10
2017-07-09T07:55:03.650Z,1009.10
2017-07-09T07:55:57.508Z,1009.08
2017-07-09T07:56:57.658Z,1009.10
2017-07-09T07:57:51.725Z,1009.08
2017-07-09T07:58:40.653Z,1009.08
2017-07-09T07:59:34.772Z,1009.08
2017-07-09T08:00:23.835Z,1009.08
2017-07-09T08:01:23.888Z,1009.04
2017-07-09T08:02:17.970Z,1009.10
2017-07-09T08:03:18.095Z,1009.07
2017-07-09T08:04:13.106Z,1009.04
2017-07-09T08:05:07.126Z,1008.99
2017-07-09T08:06:01.204Z,1009.05
2017-07-09T08:06:49.251Z,1009.07
2017-07-09T08:07:37.397Z,1009.08
2017-07-09T08:08:37.355Z,1009.10
2017-07-09T08:09:32.392Z,1009.11
2017-07-09T08:10:21.482Z,1009.15
2017-07-09T08:11:21.558Z,1009.19
2017-07-09T08:12:15.664Z,1009.23
2017-07-09T08:13:09.645Z,1009.28
2017-07-09T08:14:03.502Z,1009.26
2017-07-09T08:14:57.567Z,1009.27
2017-07-09T08:15:58.495Z,1009.29
2017-07-09T08:16:53.666Z,1009.24
2017-07-09T08:17:47.711Z,1009.17
2017-07-09T08:18:36.920Z,1009.16
2017-07-09T08:19:31.073Z,1009.19
2017-07-09T08:20:25.115Z,1009.20
2017-07-09T08:21:13.170Z,1009.23
2017-07-09T08:22:13.113Z,1009.25
2017-07-09T08:23:07.071Z,1009.28
2017-07-09T08:23:56.259Z,1009.26
2017-07-09T08:24:50.385Z,1009.25
2017-07-09T08:25:44.398Z,1009.25
2017-07-09T08:26:44.389Z,1009.23
2017-07-09T08:27:38.372Z,1009.22
2017-07-09T08:28:38.598Z,1009.28
2017-07-09T08:29:26.832Z,1009.28
2017-07-09T08:30:27.644Z,1009.24
2017-07-09T08:31:16.789Z,1009.25
2017-07-09T08:32:04.789Z,1009.19
2017-07-09T08:32:58.826Z,1009.14
2017-07-09T08:33:58.906Z,1009.14
2017-07-09T08:34:52.946Z,1009.13
2017-07-09T08:35:46.973Z,1009.07
2017-07-09T08:36:41.110Z,1009.06
2017-07-09T08:37:35.202Z,1009.06
2017-07-09T08:38:24.035Z,1009.09
2017-07-09T08:39:18.218Z,1009.09
2017-07-09T08:40:13.404Z,1009.13
2017-07-09T08:41:14.299Z,1009.11
2017-07-09T08:42:14.393Z,1009.13
2017-07-09T08:43:14.281Z,1009.13
2017-07-09T08:44:03.394Z,1009.15
2017-07-09T08:44:51.583Z,1009.14
2017-07-09T08:45:51.623Z,1009.16
2017-07-09T08:46:40.524Z,1009.18
2017-07-09T08:47:28.738Z,1009.12
2017-07-09T08:48:28.671Z,1009.13
2017-07-09T08:49:23.778Z,1009.15
2017-07-09T08:50:17.940Z,1009.13
2017-07-09T08:51:05.866Z,1009.13
2017-07-09T08:52:01.047Z,1009.12
2017-07-09T08:52:56.163Z,1009.07
2017-07-09T08:53:45.182Z,1009.10
2017-07-09T08:54:40.263Z,1009.11
2017-07-09T08:55:35.288Z,1009.08
2017-07-09T08:56:30.278Z,1009.03
2017-07-09T08:57:25.413Z,1009.05
2017-07-09T08:58:25.407Z,1009.04
2017-07-09T08:59:19.455Z,1009.02
2017-07-09T09:00:19.490Z,1008.94
2017-07-09T09:01:14.583Z,1008.91
2017-07-09T09:02:14.741Z,1008.84
2017-07-09T09:03:09.728Z,1008.86
2017-07-09T09:04:04.800Z,1008.87
2017-07-09T09:04:53.816Z,1008.95
2017-07-09T09:05:53.838Z,1008.92
2017-07-09T09:06:48.973Z,1008.83
2017-07-09T09:07:42.940Z,1008.80
2017-07-09T09:08:37.067Z,1008.77
2017-07-09T09:09:26.144Z,1008.67
2017-07-09T09:10:15.245Z,1008.65
2017-07-09T09:11:15.255Z,1008.75
2017-07-09T09:12:03.252Z,1008.69
2017-07-09T09:12:57.330Z,1008.65
2017-07-09T09:13:51.304Z,1008.58
2017-07-09T09:14:46.434Z,1008.53
2017-07-09T09:15:46.528Z,1008.55
2017-07-09T09:16:41.626Z,1008.55
2017-07-09T09:17:35.646Z,1008.52
2017-07-09T09:18:35.868Z,1008.51
2017-07-09T09:19:30.890Z,1008.52
2017-07-09T09:20:19.938Z,1008.55
2017-07-09T09:21:13.980Z,1008.49
2017-07-09T09:22:08.064Z,1008.53
2017-07-09T09:23:02.245Z,1008.51
2017-07-09T09:23:56.188Z,1008.50
2017-07-09T09:24:57.338Z,1008.47
2017-07-09T09:25:51.392Z,1008.54
2017-07-09T09:26:40.475Z,1008.55
2017-07-09T09:27:29.690Z,1008.56
2017-07-09T09:28:29.705Z,1008.61
2017-07-09T09:29:23.792Z,1008.65
2017-07-09T09:30:18.773Z,1008.70
2017-07-09T09:31:18.868Z,1008.56
2017-07-09T09:32:18.955Z,1008.61
2017-07-09T09:33:13.930Z,1008.68
2017-07-09T09:34:03.010Z,1008.74
2017-07-09T09:35:03.136Z,1008.55
2017-07-09T09:35:58.256Z,1008.64
2017-07-09T09:36:53.304Z,1008.89
2017-07-09T09:37:47.373Z,1008.69
2017-07-09T09:38:42.449Z,1008.75
2017-07-09T09:39:31.441Z,1008.80
2017-07-09T09:40:19.639Z,1008.80
2017-07-09T09:41:14.647Z,1008.92
2017-07-09T09:42:14.769Z,1009.01
2017-07-09T09:43:03.749Z,1008.98
2017-07-09T09:43:57.889Z,1008.99
2017-07-09T09:44:51.924Z,1009.01
2017-07-09T09:45:45.891Z,1009.02
2017-07-09T09:46:41.039Z,1008.94
2017-07-09T09:47:30.087Z,1008.76
2017-07-09T09:48:19.245Z,1008.79
2017-07-09T09:49:08.280Z,1008.93
2017-07-09T09:50:02.283Z,1008.71
2017-07-09T09:50:51.487Z,1008.72
2017-07-09T09:51:45.345Z,1008.75
2017-07-09T09:52:40.541Z,1008.72
2017-07-09T09:53:29.699Z,1008.76
2017-07-09T09:54:18.644Z,1008.73
2017-07-09T09:55:06.673Z,1008.83
2017-07-09T09:55:56.121Z,1008.78
2017-07-09T09:56:43.852Z,1008.67
2017-07-09T09:57:37.913Z,1008.86
2017-07-09T09:58:37.962Z,1008.83
2017-07-09T09:59:32.036Z,1008.65
2017-07-09T10:00:27.084Z,1008.58
2017-07-09T10:01:21.238Z,1008.56
2017-07-09T10:02:09.309Z,1008.60
2017-07-09T10:03:04.432Z,1008.60
2017-07-09T10:03:52.450Z,1008.63
2017-07-09T10:04:41.554Z,1008.64
2017-07-09T10:05:30.671Z,1008.66
2017-07-09T10:06:25.741Z,1008.64
2017-07-09T10:07:20.791Z,1008.81
2017-07-09T10:08:14.897Z,1008.70
2017-07-09T10:09:09.862Z,1008.84
2017-07-09T10:10:03.952Z,1008.72
2017-07-09T10:10:52.986Z,1008.60
2017-07-09T10:11:53.994Z,1008.66
2017-07-09T10:12:48.048Z,1008.74
2017-07-09T10:13:42.108Z,1008.76
2017-07-09T10:14:36.259Z,1008.56
2017-07-09T10:15:31.363Z,1008.61
2017-07-09T10:16:25.482Z,1008.62
2017-07-09T10:17:25.556Z,1008.62
2017-07-09T10:18:19.549Z,1008.67
2017-07-09T10:19:14.595Z,1008.66
2017-07-09T10:20:08.651Z,1008.61
2017-07-09T10:21:08.693Z,1008.60
2017-07-09T10:22:08.778Z,1008.59
2017-07-09T10:23:02.708Z,1008.61
2017-07-09T10:24:02.851Z,1008.57
2017-07-09T10:24:50.973Z,1008.57
2017-07-09T10:25:44.977Z,1008.53
2017-07-09T10:26:34.156Z,1008.58
2017-07-09T10:27:22.113Z,1008.55
2017-07-09T10:28:22.171Z,1008.55
2017-07-09T10:29:10.274Z,1008.59
2017-07-09T10:30:04.198Z,1008.49
2017-07-09T10:30:53.421Z,1008.45
2017-07-09T10:31:47.360Z,1008.41
2017-07-09T10:32:41.503Z,1008.41
2017-07-09T10:33:36.509Z,1008.36
2017-07-09T10:34:24.636Z,1008.34
2017-07-09T10:35:19.603Z,1008.38
2017-07-09T10:36:08.692Z,1008.34
2017-07-09T10:37:02.754Z,1008.36
2017-07-09T10:37:51.763Z,1008.37
2017-07-09T10:38:40.865Z,1008.35
2017-07-09T10:39:34.999Z,1008.35
2017-07-09T10:40:29.986Z,1008.43
2017-07-09T10:41:24.045Z,1008.43
2017-07-09T10:42:24.087Z,1008.44
2017-07-09T10:43:19.320Z,1008.43
2017-07-09T10:44:13.339Z,1008.44
2017-07-09T10:45:02.225Z,1008.44
2017-07-09T10:46:03.376Z,1008.48
2017-07-09T10:46:58.540Z,1008.52
2017-07-09T10:47:53.521Z,1008.55
2017-07-09T10:48:53.554Z,1008.81
2017-07-09T10:49:49.405Z,1008.75
2017-07-09T10:50:35.713Z,1008.71
2017-07-09T10:51:24.879Z,1008.69
2017-07-09T10:52:12.914Z,1008.58
2017-07-09T10:53:13.940Z,1008.58
2017-07-09T10:54:03.029Z,1008.48
2017-07-09T10:54:58.199Z,1008.49
2017-07-09T10:55:52.105Z,1008.47